sensor_id;sensor_type;location;lat;lon;timestamp;temperature;humidity
30300;DHT22;17110;52.602;12.998;2024-03-25T00:02:06;6.00;99.90
30300;DHT22;17110;52.602;12.998;2024-03-25T00:07:06;6.00;99.90
30300;DHT22;17110;52.602;12.998;2024-03-25T00:12:07;6.10;99.90
30300;DHT22;17110;52.602;12.998;2024-03-25T00:17:09;6.10;99.90
30300;DHT22;17110;52.602;12.998;2024-03-25T00:22:10;6.10;99.90
30300;DHT22;17110;52.602;12.998;2024-03-25T00:27:10;6.10;99.90
30300;DHT22;17110;52.602;12.998;2024-03-25T00:32:12;6.00;99.90
30300;DHT22;17110;52.602;12.998;2024-03-25T00:37:13;6.00;99.90
30300;DHT22;17110;52.602;12.998;2024-03-25T00:42:14;6.00;99.90
30300;DHT22;17110;52.602;12.998;2024-03-25T00:47:16;6.00;99.90
30300;DHT22;17110;52.602;12.998;2024-03-25T00:52:16;6.10;99.90
30300;DHT22;17110;52.602;12.998;2024-03-25T00:57:17;6.10;99.90
30300;DHT22;17110;52.602;12.998;2024-03-25T01:02:19;6.10;99.90
30300;DHT22;17110;52.602;12.998;2024-03-25T01:07:20;6.10;99.90
30300;DHT22;17110;52.602;12.998;2024-03-25T01:12:20;6.10;99.90
30300;DHT22;17110;52.602;12.998;2024-03-25T01:17:22;6.10;99.90
30300;DHT22;17110;52.602;12.998;2024-03-25T01:22:23;5.90;99.90
30300;DHT22;17110;52.602;12.998;2024-03-25T01:27:24;5.80;99.90
30300;DHT22;17110;52.602;12.998;2024-03-25T01:32:25;5.80;99.90
30300;DHT22;17110;52.602;12.998;2024-03-25T01:37:26;5.90;99.90
30300;DHT22;17110;52.602;12.998;2024-03-25T01:42:27;5.90;99.90
30300;DHT22;17110;52.602;12.998;2024-03-25T01:47:29;5.80;99.90
30300;DHT22;17110;52.602;12.998;2024-03-25T01:52:30;5.80;99.90
30300;DHT22;17110;52.602;12.998;2024-03-25T01:57:31;5.80;99.90
30300;DHT22;17110;52.602;12.998;2024-03-25T02:02:33;5.80;99.90
30300;DHT22;17110;52.602;12.998;2024-03-25T02:07:34;5.90;99.90
30300;DHT22;17110;52.602;12.998;2024-03-25T02:12:36;5.80;99.90
30300;DHT22;17110;52.602;12.998;2024-03-25T02:17:38;5.80;99.90
30300;DHT22;17110;52.602;12.998;2024-03-25T02:22:39;5.90;99.90
30300;DHT22;17110;52.602;12.998;2024-03-25T02:27:41;5.90;99.90
30300;DHT22;17110;52.602;12.998;2024-03-25T02:32:41;5.90;99.90
30300;DHT22;17110;52.602;12.998;2024-03-25T02:37:42;5.90;99.90
30300;DHT22;17110;52.602;12.998;2024-03-25T02:42:44;5.80;99.90
30300;DHT22;17110;52.602;12.998;2024-03-25T02:47:45;5.80;99.90
30300;DHT22;17110;52.602;12.998;2024-03-25T02:52:46;5.80;99.90
30300;DHT22;17110;52.602;12.998;2024-03-25T02:57:48;5.80;99.90
30300;DHT22;17110;52.602;12.998;2024-03-25T03:02:49;5.70;99.90
30300;DHT22;17110;52.602;12.998;2024-03-25T03:07:49;5.70;99.90
30300;DHT22;17110;52.602;12.998;2024-03-25T03:12:51;5.70;99.90
30300;DHT22;17110;52.602;12.998;2024-03-25T03:17:52;5.70;99.90
30300;DHT22;17110;52.602;12.998;2024-03-25T03:22:52;5.80;99.90
30300;DHT22;17110;52.602;12.998;2024-03-25T03:27:54;5.70;99.90
30300;DHT22;17110;52.602;12.998;2024-03-25T03:32:55;5.60;99.90
30300;DHT22;17110;52.602;12.998;2024-03-25T03:37:56;5.70;99.90
30300;DHT22;17110;52.602;12.998;2024-03-25T03:42:57;5.70;99.90
30300;DHT22;17110;52.602;12.998;2024-03-25T03:47:58;5.70;99.90
30300;DHT22;17110;52.602;12.998;2024-03-25T03:52:59;5.70;99.90
30300;DHT22;17110;52.602;12.998;2024-03-25T03:58:01;5.80;99.90
30300;DHT22;17110;52.602;12.998;2024-03-25T04:03:02;5.90;99.90
30300;DHT22;17110;52.602;12.998;2024-03-25T04:08:03;5.80;99.90
30300;DHT22;17110;52.602;12.998;2024-03-25T04:13:05;5.80;99.90
30300;DHT22;17110;52.602;12.998;2024-03-25T04:18:06;5.80;99.90
30300;DHT22;17110;52.602;12.998;2024-03-25T04:23:07;5.90;99.90
30300;DHT22;17110;52.602;12.998;2024-03-25T04:28:09;5.80;99.90
30300;DHT22;17110;52.602;12.998;2024-03-25T04:33:10;5.90;99.90
30300;DHT22;17110;52.602;12.998;2024-03-25T04:38:11;5.90;99.90
30300;DHT22;17110;52.602;12.998;2024-03-25T04:43:13;5.90;99.90
30300;DHT22;17110;52.602;12.998;2024-03-25T04:48:13;5.80;99.90
30300;DHT22;17110;52.602;12.998;2024-03-25T04:53:14;5.80;99.90
30300;DHT22;17110;52.602;12.998;2024-03-25T04:58:16;5.80;99.90
30300;DHT22;17110;52.602;12.998;2024-03-25T05:03:16;5.80;99.90
30300;DHT22;17110;52.602;12.998;2024-03-25T05:08:17;5.80;99.90
30300;DHT22;17110;52.602;12.998;2024-03-25T05:13:19;5.80;99.90
30300;DHT22;17110;52.602;12.998;2024-03-25T05:18:20;5.80;99.90
30300;DHT22;17110;52.602;12.998;2024-03-25T05:23:20;5.80;99.90
30300;DHT22;17110;52.602;12.998;2024-03-25T05:28:22;5.80;99.90
30300;DHT22;17110;52.602;12.998;2024-03-25T05:33:23;5.80;99.90
30300;DHT22;17110;52.602;12.998;2024-03-25T05:38:23;5.90;99.90
30300;DHT22;17110;52.602;12.998;2024-03-25T05:43:25;5.90;99.90
30300;DHT22;17110;52.602;12.998;2024-03-25T05:48:27;5.80;99.90
30300;DHT22;17110;52.602;12.998;2024-03-25T05:53:28;5.80;99.90
30300;DHT22;17110;52.602;12.998;2024-03-25T05:58:30;5.90;99.90
30300;DHT22;17110;52.602;12.998;2024-03-25T06:03:30;5.90;99.90
30300;DHT22;17110;52.602;12.998;2024-03-25T06:08:31;5.90;99.90
30300;DHT22;17110;52.602;12.998;2024-03-25T06:13:33;5.90;99.90
30300;DHT22;17110;52.602;12.998;2024-03-25T06:18:34;5.90;99.90
30300;DHT22;17110;52.602;12.998;2024-03-25T06:23:34;6.00;99.90
30300;DHT22;17110;52.602;12.998;2024-03-25T06:28:37;6.10;99.90
30300;DHT22;17110;52.602;12.998;2024-03-25T06:33:38;6.10;99.90
30300;DHT22;17110;52.602;12.998;2024-03-25T06:38:38;6.00;99.90
30300;DHT22;17110;52.602;12.998;2024-03-25T06:43:40;6.00;99.90
30300;DHT22;17110;52.602;12.998;2024-03-25T06:48:41;6.00;99.90
30300;DHT22;17110;52.602;12.998;2024-03-25T06:53:41;6.00;99.90
30300;DHT22;17110;52.602;12.998;2024-03-25T06:58:43;6.00;99.90
30300;DHT22;17110;52.602;12.998;2024-03-25T07:03:44;6.00;99.90
30300;DHT22;17110;52.602;12.998;2024-03-25T07:08:45;6.00;99.90
30300;DHT22;17110;52.602;12.998;2024-03-25T07:13:46;6.00;99.90
30300;DHT22;17110;52.602;12.998;2024-03-25T07:18:47;6.00;99.90
30300;DHT22;17110;52.602;12.998;2024-03-25T07:23:48;6.00;99.90
30300;DHT22;17110;52.602;12.998;2024-03-25T07:28:50;6.10;99.90
30300;DHT22;17110;52.602;12.998;2024-03-25T07:33:50;6.20;99.90
30300;DHT22;17110;52.602;12.998;2024-03-25T07:38:51;6.20;99.90
30300;DHT22;17110;52.602;12.998;2024-03-25T07:43:53;6.40;99.90
30300;DHT22;17110;52.602;12.998;2024-03-25T07:48:53;6.40;99.90
30300;DHT22;17110;52.602;12.998;2024-03-25T07:53:54;6.40;99.90
30300;DHT22;17110;52.602;12.998;2024-03-25T07:58:56;6.70;99.90
30300;DHT22;17110;52.602;12.998;2024-03-25T08:03:57;6.90;99.90
30300;DHT22;17110;52.602;12.998;2024-03-25T08:08:58;7.10;99.90
30300;DHT22;17110;52.602;12.998;2024-03-25T08:14:00;7.40;99.90
30300;DHT22;17110;52.602;12.998;2024-03-25T08:19:00;7.60;99.90
30300;DHT22;17110;52.602;12.998;2024-03-25T08:24:01;7.50;99.90
30300;DHT22;17110;52.602;12.998;2024-03-25T08:29:03;7.50;99.90
30300;DHT22;17110;52.602;12.998;2024-03-25T08:34:04;7.50;99.90
30300;DHT22;17110;52.602;12.998;2024-03-25T08:39:05;7.60;99.90
30300;DHT22;17110;52.602;12.998;2024-03-25T08:44:07;7.60;99.90
30300;DHT22;17110;52.602;12.998;2024-03-25T08:49:07;7.60;99.90
30300;DHT22;17110;52.602;12.998;2024-03-25T08:54:08;7.50;99.90
30300;DHT22;17110;52.602;12.998;2024-03-25T08:59:10;7.40;99.90
30300;DHT22;17110;52.602;12.998;2024-03-25T09:04:11;7.50;99.90
30300;DHT22;17110;52.602;12.998;2024-03-25T09:09:11;7.80;99.90
30300;DHT22;17110;52.602;12.998;2024-03-25T09:14:13;8.10;99.90
30300;DHT22;17110;52.602;12.998;2024-03-25T09:19:14;8.40;99.90
30300;DHT22;17110;52.602;12.998;2024-03-25T09:24:14;8.60;99.90
30300;DHT22;17110;52.602;12.998;2024-03-25T09:29:16;8.80;99.90
30300;DHT22;17110;52.602;12.998;2024-03-25T09:34:17;9.00;99.90
30300;DHT22;17110;52.602;12.998;2024-03-25T09:39:18;9.00;99.90
30300;DHT22;17110;52.602;12.998;2024-03-25T09:44:22;9.20;99.90
30300;DHT22;17110;52.602;12.998;2024-03-25T09:49:25;9.10;99.90
30300;DHT22;17110;52.602;12.998;2024-03-25T09:54:27;9.20;99.90
30300;DHT22;17110;52.602;12.998;2024-03-25T09:59:29;9.20;99.90
30300;DHT22;17110;52.602;12.998;2024-03-25T10:04:30;8.90;99.90
30300;DHT22;17110;52.602;12.998;2024-03-25T10:09:31;9.10;99.90
30300;DHT22;17110;52.602;12.998;2024-03-25T10:14:33;9.40;99.90
30300;DHT22;17110;52.602;12.998;2024-03-25T10:19:34;9.60;99.90
30300;DHT22;17110;52.602;12.998;2024-03-25T10:24:39;9.60;99.90
30300;DHT22;17110;52.602;12.998;2024-03-25T10:29:41;9.60;99.90
30300;DHT22;17110;52.602;12.998;2024-03-25T10:34:42;9.60;99.90
30300;DHT22;17110;52.602;12.998;2024-03-25T10:39:47;9.50;99.90
30300;DHT22;17110;52.602;12.998;2024-03-25T10:44:49;9.30;99.90
30300;DHT22;17110;52.602;12.998;2024-03-25T10:49:51;9.20;99.90
30300;DHT22;17110;52.602;12.998;2024-03-25T10:54:54;9.20;99.90
30300;DHT22;17110;52.602;12.998;2024-03-25T10:59:57;9.20;99.90
30300;DHT22;17110;52.602;12.998;2024-03-25T11:04:58;9.30;99.90
30300;DHT22;17110;52.602;12.998;2024-03-25T11:10:03;9.40;99.90
30300;DHT22;17110;52.602;12.998;2024-03-25T11:15:07;9.60;99.90
30300;DHT22;17110;52.602;12.998;2024-03-25T11:20:09;10.20;99.90
30300;DHT22;17110;52.602;12.998;2024-03-25T11:25:12;10.50;99.90
30300;DHT22;17110;52.602;12.998;2024-03-25T11:30:18;10.60;99.90
30300;DHT22;17110;52.602;12.998;2024-03-25T11:35:19;10.50;99.90
30300;DHT22;17110;52.602;12.998;2024-03-25T11:40:20;10.20;99.90
30300;DHT22;17110;52.602;12.998;2024-03-25T11:45:22;10.00;99.90
30300;DHT22;17110;52.602;12.998;2024-03-25T11:50:23;9.80;99.90
30300;DHT22;17110;52.602;12.998;2024-03-25T11:55:24;9.60;99.90
30300;DHT22;17110;52.602;12.998;2024-03-25T12:00:26;9.30;99.90
30300;DHT22;17110;52.602;12.998;2024-03-25T12:05:27;9.00;99.90
30300;DHT22;17110;52.602;12.998;2024-03-25T12:10:27;9.30;99.90
30300;DHT22;17110;52.602;12.998;2024-03-25T12:15:29;9.90;99.90
30300;DHT22;17110;52.602;12.998;2024-03-25T12:20:30;10.30;99.90
30300;DHT22;17110;52.602;12.998;2024-03-25T12:25:31;10.40;99.90
30300;DHT22;17110;52.602;12.998;2024-03-25T12:30:33;10.40;99.90
30300;DHT22;17110;52.602;12.998;2024-03-25T12:35:35;10.50;99.90
30300;DHT22;17110;52.602;12.998;2024-03-25T12:40:35;10.80;99.90
30300;DHT22;17110;52.602;12.998;2024-03-25T12:45:37;10.80;99.90
30300;DHT22;17110;52.602;12.998;2024-03-25T12:50:38;10.90;99.90
30300;DHT22;17110;52.602;12.998;2024-03-25T12:55:39;10.70;99.90
30300;DHT22;17110;52.602;12.998;2024-03-25T13:00:41;10.80;99.90
30300;DHT22;17110;52.602;12.998;2024-03-25T13:05:43;11.10;99.90
30300;DHT22;17110;52.602;12.998;2024-03-25T13:10:44;10.90;99.90
30300;DHT22;17110;52.602;12.998;2024-03-25T13:15:46;10.50;99.90
30300;DHT22;17110;52.602;12.998;2024-03-25T13:20:46;10.40;99.90
30300;DHT22;17110;52.602;12.998;2024-03-25T13:25:47;10.40;99.90
30300;DHT22;17110;52.602;12.998;2024-03-25T13:30:49;10.30;99.90
30300;DHT22;17110;52.602;12.998;2024-03-25T13:35:50;10.30;99.90
30300;DHT22;17110;52.602;12.998;2024-03-25T13:40:50;10.50;99.90
30300;DHT22;17110;52.602;12.998;2024-03-25T13:45:52;11.20;99.90
30300;DHT22;17110;52.602;12.998;2024-03-25T13:50:53;11.40;99.90
30300;DHT22;17110;52.602;12.998;2024-03-25T13:55:54;10.80;99.90
30300;DHT22;17110;52.602;12.998;2024-03-25T14:00:56;10.30;99.90
30300;DHT22;17110;52.602;12.998;2024-03-25T14:05:57;10.20;99.90
30300;DHT22;17110;52.602;12.998;2024-03-25T14:10:58;10.20;99.90
30300;DHT22;17110;52.602;12.998;2024-03-25T14:16:00;10.50;99.90
30300;DHT22;17110;52.602;12.998;2024-03-25T14:21:00;11.20;99.90
30300;DHT22;17110;52.602;12.998;2024-03-25T14:26:01;11.90;99.90
30300;DHT22;17110;52.602;12.998;2024-03-25T14:31:03;11.20;99.90
30300;DHT22;17110;52.602;12.998;2024-03-25T14:36:04;10.60;99.90
30300;DHT22;17110;52.602;12.998;2024-03-25T14:41:05;10.20;99.90
30300;DHT22;17110;52.602;12.998;2024-03-25T14:46:07;10.00;99.90
30300;DHT22;17110;52.602;12.998;2024-03-25T14:51:08;9.90;99.90
30300;DHT22;17110;52.602;12.998;2024-03-25T14:56:08;9.70;99.90
30300;DHT22;17110;52.602;12.998;2024-03-25T15:01:10;9.50;99.90
30300;DHT22;17110;52.602;12.998;2024-03-25T15:06:11;9.50;99.90
30300;DHT22;17110;52.602;12.998;2024-03-25T15:11:11;9.40;99.90
30300;DHT22;17110;52.602;12.998;2024-03-25T15:16:13;9.40;99.90
30300;DHT22;17110;52.602;12.998;2024-03-25T15:21:14;9.40;99.90
30300;DHT22;17110;52.602;12.998;2024-03-25T15:26:15;9.50;99.90
30300;DHT22;17110;52.602;12.998;2024-03-25T15:31:17;9.60;99.90
30300;DHT22;17110;52.602;12.998;2024-03-25T15:36:17;9.60;99.90
30300;DHT22;17110;52.602;12.998;2024-03-25T15:41:18;9.50;99.90
30300;DHT22;17110;52.602;12.998;2024-03-25T15:46:20;9.50;99.90
30300;DHT22;17110;52.602;12.998;2024-03-25T15:51:21;9.60;99.90
30300;DHT22;17110;52.602;12.998;2024-03-25T15:56:21;9.70;99.90
30300;DHT22;17110;52.602;12.998;2024-03-25T16:01:23;9.90;99.90
30300;DHT22;17110;52.602;12.998;2024-03-25T16:06:24;10.10;99.90
30300;DHT22;17110;52.602;12.998;2024-03-25T16:11:25;10.10;99.90
30300;DHT22;17110;52.602;12.998;2024-03-25T16:16:27;10.20;99.90
30300;DHT22;17110;52.602;12.998;2024-03-25T16:21:27;10.10;99.90
30300;DHT22;17110;52.602;12.998;2024-03-25T16:26:28;9.90;99.90
30300;DHT22;17110;52.602;12.998;2024-03-25T16:31:30;9.70;99.90
30300;DHT22;17110;52.602;12.998;2024-03-25T16:36:30;9.40;99.90
30300;DHT22;17110;52.602;12.998;2024-03-25T16:41:31;9.20;99.90
30300;DHT22;17110;52.602;12.998;2024-03-25T16:46:33;9.00;99.90
30300;DHT22;17110;52.602;12.998;2024-03-25T16:51:34;8.80;99.90
30300;DHT22;17110;52.602;12.998;2024-03-25T16:56:34;8.70;99.90
30300;DHT22;17110;52.602;12.998;2024-03-25T17:01:36;8.50;99.90
30300;DHT22;17110;52.602;12.998;2024-03-25T17:06:37;8.30;99.90
30300;DHT22;17110;52.602;12.998;2024-03-25T17:11:38;8.10;99.90
30300;DHT22;17110;52.602;12.998;2024-03-25T17:16:39;7.90;99.90
30300;DHT22;17110;52.602;12.998;2024-03-25T17:21:40;7.70;99.90
30300;DHT22;17110;52.602;12.998;2024-03-25T17:26:41;7.50;99.90
30300;DHT22;17110;52.602;12.998;2024-03-25T17:31:43;7.30;99.90
30300;DHT22;17110;52.602;12.998;2024-03-25T17:36:43;7.20;99.90
30300;DHT22;17110;52.602;12.998;2024-03-25T17:41:44;7.00;99.90
30300;DHT22;17110;52.602;12.998;2024-03-25T17:46:46;6.90;99.90
30300;DHT22;17110;52.602;12.998;2024-03-25T17:51:48;6.70;99.90
30300;DHT22;17110;52.602;12.998;2024-03-25T17:56:48;6.50;99.90
30300;DHT22;17110;52.602;12.998;2024-03-25T18:01:51;6.30;99.90
30300;DHT22;17110;52.602;12.998;2024-03-25T18:06:52;6.10;99.90
30300;DHT22;17110;52.602;12.998;2024-03-25T18:11:53;5.90;99.90
30300;DHT22;17110;52.602;12.998;2024-03-25T18:16:55;5.80;99.90
30300;DHT22;17110;52.602;12.998;2024-03-25T18:21:55;5.70;99.90
30300;DHT22;17110;52.602;12.998;2024-03-25T18:26:56;5.60;99.90
30300;DHT22;17110;52.602;12.998;2024-03-25T18:31:58;5.50;99.90
30300;DHT22;17110;52.602;12.998;2024-03-25T18:36:58;5.40;99.90
30300;DHT22;17110;52.602;12.998;2024-03-25T18:41:59;5.20;99.90
30300;DHT22;17110;52.602;12.998;2024-03-25T18:47:01;5.10;99.90
30300;DHT22;17110;52.602;12.998;2024-03-25T18:52:02;4.80;99.90
30300;DHT22;17110;52.602;12.998;2024-03-25T18:57:02;4.60;99.90
30300;DHT22;17110;52.602;12.998;2024-03-25T19:02:05;4.40;99.90
30300;DHT22;17110;52.602;12.998;2024-03-25T19:07:06;4.40;99.90
30300;DHT22;17110;52.602;12.998;2024-03-25T19:12:07;4.20;99.90
30300;DHT22;17110;52.602;12.998;2024-03-25T19:17:08;4.10;99.90
30300;DHT22;17110;52.602;12.998;2024-03-25T19:22:09;4.10;99.90
30300;DHT22;17110;52.602;12.998;2024-03-25T19:27:11;4.00;99.90
30300;DHT22;17110;52.602;12.998;2024-03-25T19:32:13;4.00;99.90
30300;DHT22;17110;52.602;12.998;2024-03-25T19:37:14;3.90;99.90
30300;DHT22;17110;52.602;12.998;2024-03-25T19:42:14;3.90;99.90
30300;DHT22;17110;52.602;12.998;2024-03-25T19:47:16;3.90;99.90
30300;DHT22;17110;52.602;12.998;2024-03-25T19:52:17;3.90;99.90
30300;DHT22;17110;52.602;12.998;2024-03-25T19:57:17;3.90;99.90
30300;DHT22;17110;52.602;12.998;2024-03-25T20:02:19;3.80;99.90
30300;DHT22;17110;52.602;12.998;2024-03-25T20:07:20;3.70;99.90
30300;DHT22;17110;52.602;12.998;2024-03-25T20:12:21;3.60;99.90
30300;DHT22;17110;52.602;12.998;2024-03-25T20:17:23;3.50;99.90
30300;DHT22;17110;52.602;12.998;2024-03-25T20:22:23;3.30;99.90
30300;DHT22;17110;52.602;12.998;2024-03-25T20:27:24;3.20;99.90
30300;DHT22;17110;52.602;12.998;2024-03-25T20:32:26;3.10;99.90
30300;DHT22;17110;52.602;12.998;2024-03-25T20:37:27;3.00;99.90
30300;DHT22;17110;52.602;12.998;2024-03-25T20:42:27;2.90;99.90
30300;DHT22;17110;52.602;12.998;2024-03-25T20:47:29;2.90;99.90
30300;DHT22;17110;52.602;12.998;2024-03-25T20:52:30;2.80;99.90
30300;DHT22;17110;52.602;12.998;2024-03-25T20:57:31;2.70;99.90
30300;DHT22;17110;52.602;12.998;2024-03-25T21:02:33;2.50;99.90
30300;DHT22;17110;52.602;12.998;2024-03-25T21:07:33;2.50;99.90
30300;DHT22;17110;52.602;12.998;2024-03-25T21:12:34;2.40;99.90
30300;DHT22;17110;52.602;12.998;2024-03-25T21:17:36;2.40;99.90
30300;DHT22;17110;52.602;12.998;2024-03-25T21:22:37;2.40;99.90
30300;DHT22;17110;52.602;12.998;2024-03-25T21:27:37;2.30;99.90
30300;DHT22;17110;52.602;12.998;2024-03-25T21:32:39;2.30;99.90
30300;DHT22;17110;52.602;12.998;2024-03-25T21:37:40;2.30;99.90
30300;DHT22;17110;52.602;12.998;2024-03-25T21:42:40;2.10;99.90
30300;DHT22;17110;52.602;12.998;2024-03-25T21:47:42;2.10;99.90
30300;DHT22;17110;52.602;12.998;2024-03-25T21:52:43;2.00;99.90
30300;DHT22;17110;52.602;12.998;2024-03-25T21:57:44;1.90;99.90
30300;DHT22;17110;52.602;12.998;2024-03-25T22:02:46;1.80;99.90
30300;DHT22;17110;52.602;12.998;2024-03-25T22:07:46;1.80;99.90
30300;DHT22;17110;52.602;12.998;2024-03-25T22:12:47;1.70;99.90
30300;DHT22;17110;52.602;12.998;2024-03-25T22:17:49;1.60;99.90
30300;DHT22;17110;52.602;12.998;2024-03-25T22:22:50;1.60;99.90
30300;DHT22;17110;52.602;12.998;2024-03-25T22:27:51;1.50;99.90
30300;DHT22;17110;52.602;12.998;2024-03-25T22:32:53;1.50;99.90
30300;DHT22;17110;52.602;12.998;2024-03-25T22:37:54;1.40;99.90
30300;DHT22;17110;52.602;12.998;2024-03-25T22:42:54;1.30;99.90
30300;DHT22;17110;52.602;12.998;2024-03-25T22:47:56;1.20;99.90
30300;DHT22;17110;52.602;12.998;2024-03-25T22:52:57;1.20;99.90
30300;DHT22;17110;52.602;12.998;2024-03-25T22:57:57;1.10;99.90
30300;DHT22;17110;52.602;12.998;2024-03-25T23:02:59;1.00;99.90
30300;DHT22;17110;52.602;12.998;2024-03-25T23:08:00;1.00;99.90
30300;DHT22;17110;52.602;12.998;2024-03-25T23:13:01;1.00;99.90
30300;DHT22;17110;52.602;12.998;2024-03-25T23:18:03;0.90;99.90
30300;DHT22;17110;52.602;12.998;2024-03-25T23:23:03;0.80;99.90
30300;DHT22;17110;52.602;12.998;2024-03-25T23:28:05;0.80;99.90
30300;DHT22;17110;52.602;12.998;2024-03-25T23:33:07;0.70;99.90
30300;DHT22;17110;52.602;12.998;2024-03-25T23:38:07;0.70;99.90
30300;DHT22;17110;52.602;12.998;2024-03-25T23:43:08;0.70;99.90
30300;DHT22;17110;52.602;12.998;2024-03-25T23:48:10;0.70;99.90
30300;DHT22;17110;52.602;12.998;2024-03-25T23:53:10;0.60;99.90
30300;DHT22;17110;52.602;12.998;2024-03-25T23:58:11;0.60;99.90
